createdAt,value
2023-04-26T00:01:47.071Z,100910.97
2023-04-26T00:06:51.985Z,100915.97
2023-04-26T00:11:55.669Z,100916.06
2023-04-26T00:16:59.241Z,100910.81
2023-04-26T00:22:05.649Z,100911.97
2023-04-26T00:27:10.606Z,100913.53
2023-04-26T00:32:14.591Z,100904.31
2023-04-26T00:37:19.493Z,100916.09
2023-04-26T00:42:22.996Z,100918.97
2023-04-26T00:47:27.073Z,100912.84
2023-04-26T00:52:32.284Z,100907.03
2023-04-26T00:57:35.829Z,100913.34
2023-04-26T01:02:39.812Z,100912.47
2023-04-26T01:07:45.029Z,100919.50
2023-04-26T01:12:48.948Z,100923.09
2023-04-26T01:17:54.873Z,100923.63
2023-04-26T01:22:59.579Z,100933.50
2023-04-26T01:28:03.186Z,100932.19
2023-04-26T01:33:06.662Z,100927.50
2023-04-26T01:38:11.803Z,100933.31
2023-04-26T01:43:18.552Z,100939.47
2023-04-26T01:48:22.210Z,100940.09
2023-04-26T01:53:27.127Z,100941.13
2023-04-26T01:58:30.860Z,100937.13
2023-04-26T02:03:34.802Z,100939.59
2023-04-26T02:08:39.612Z,100944.84
2023-04-26T02:13:43.232Z,100937.03
2023-04-26T02:18:47.254Z,100941.63
2023-04-26T02:23:51.984Z,100932.38
2023-04-26T02:28:55.569Z,100937.81
2023-04-26T02:33:59.257Z,100943.69
2023-04-26T02:39:05.695Z,100937.53
2023-04-26T02:44:09.182Z,100948.00
2023-04-26T02:49:13.041Z,100943.53
2023-04-26T02:54:17.833Z,100946.97
2023-04-26T02:59:21.612Z,100947.00
2023-04-26T03:04:25.553Z,100939.09
2023-04-26T03:09:30.840Z,100949.66
2023-04-26T03:14:34.528Z,100944.69
2023-04-26T03:19:39.281Z,100945.03
2023-04-26T03:24:46.417Z,100942.13
2023-04-26T03:29:49.770Z,100943.50
2023-04-26T03:34:53.366Z,100943.97
2023-04-26T03:39:58.645Z,100940.72
2023-04-26T03:45:03.212Z,100937.19
2023-04-26T03:50:09.129Z,100938.66
2023-04-26T03:55:14.214Z,100941.00
2023-04-26T04:00:18.500Z,100941.91
2023-04-26T04:05:24.145Z,100942.97
2023-04-26T04:10:29.208Z,100946.69
2023-04-26T04:15:32.989Z,100947.72
2023-04-26T04:20:36.749Z,100947.97
2023-04-26T04:25:42.161Z,100951.50
2023-04-26T04:30:48.327Z,100958.88
2023-04-26T04:35:52.444Z,100959.66
2023-04-26T04:40:58.053Z,100968.09
2023-04-26T04:46:01.619Z,100961.00
2023-04-26T04:51:05.179Z,100953.44
2023-04-26T04:56:11.883Z,100958.88
2023-04-26T05:01:15.912Z,100962.19
2023-04-26T05:06:28.879Z,100965.31
2023-04-26T05:11:33.847Z,100963.63
2023-04-26T05:16:38.694Z,100971.97
2023-04-26T05:21:42.399Z,100978.13
2023-04-26T05:26:47.290Z,100978.25
2023-04-26T05:32:11.284Z,100983.97
2023-04-26T05:37:17.658Z,100991.84
2023-04-26T05:42:22.937Z,100994.47
2023-04-26T05:47:27.034Z,100984.09
2023-04-26T05:52:31.082Z,100997.03
2023-04-26T05:57:35.986Z,100988.13
2023-04-26T06:02:39.794Z,100990.22
2023-04-26T06:07:46.539Z,100991.66
2023-04-26T06:12:51.565Z,100992.03
2023-04-26T06:17:56.596Z,100992.44
2023-04-26T06:23:00.167Z,100994.50
2023-04-26T06:28:05.669Z,100993.72
2023-04-26T06:33:09.557Z,100996.66
2023-04-26T06:38:13.559Z,100992.31
2023-04-26T06:43:18.909Z,101001.44
2023-04-26T06:48:31.022Z,101002.16
2023-04-26T06:53:34.665Z,101008.25
2023-04-26T06:58:39.686Z,101002.75
2023-04-26T07:03:43.307Z,101001.00
2023-04-26T07:08:46.872Z,100997.56
2023-04-26T07:13:52.052Z,100994.75
2023-04-26T07:18:58.453Z,101017.34
2023-04-26T07:24:02.083Z,101012.63
2023-04-26T07:29:06.903Z,101021.91
2023-04-26T07:34:10.456Z,101009.16
2023-04-26T07:39:13.959Z,101006.97
2023-04-26T07:44:18.732Z,101011.63
2023-04-26T07:49:22.126Z,101011.88
2023-04-26T07:54:25.579Z,101007.72
2023-04-26T07:59:30.453Z,101018.06
2023-04-26T08:04:35.115Z,101005.59
2023-04-26T08:09:38.720Z,101007.81
2023-04-26T08:14:43.740Z,101026.97
2023-04-26T08:19:47.068Z,101014.22
2023-04-26T08:24:50.822Z,100996.88
2023-04-26T08:29:55.753Z,101007.56
2023-04-26T08:34:59.598Z,101000.38
2023-04-26T08:40:03.860Z,100995.53
2023-04-26T08:45:11.460Z,100988.41
2023-04-26T08:50:16.252Z,100998.91
2023-04-26T08:55:21.811Z,101004.34
2023-04-26T09:00:27.635Z,101009.19
2023-04-26T09:05:31.192Z,101015.66
2023-04-26T09:10:35.402Z,101005.19
2023-04-26T09:15:41.395Z,101011.34
2023-04-26T09:20:46.165Z,101024.16
2023-04-26T09:25:49.638Z,101016.13
2023-04-26T09:30:54.538Z,101014.28
2023-04-26T09:36:12.681Z,101004.59
2023-04-26T09:41:16.091Z,101007.16
2023-04-26T09:46:25.226Z,101002.50
2023-04-26T09:51:29.160Z,100998.06
2023-04-26T09:56:32.570Z,100999.56
2023-04-26T10:01:38.455Z,100996.38
2023-04-26T10:06:42.249Z,101016.47
2023-04-26T10:11:45.645Z,101017.53
2023-04-26T10:16:51.524Z,101025.94
2023-04-26T10:21:57.435Z,101022.66
2023-04-26T10:27:03.025Z,101015.00
2023-04-26T10:32:10.614Z,101002.94
2023-04-26T10:37:15.126Z,100992.47
2023-04-26T10:42:24.152Z,101000.22
2023-04-26T10:47:32.489Z,101011.50
2023-04-26T10:52:36.485Z,101002.59
2023-04-26T10:57:54.165Z,101004.63
2023-04-26T11:03:09.502Z,100993.25
2023-04-26T11:08:20.747Z,100993.75
2023-04-26T11:13:24.231Z,100995.03
2023-04-26T11:18:29.964Z,100982.97
2023-04-26T11:23:33.903Z,100975.16
2023-04-26T11:28:38.860Z,100983.28
2023-04-26T11:33:43.574Z,100991.31
2023-04-26T11:38:47.235Z,100996.50
2023-04-26T11:43:50.817Z,100994.09
2023-04-26T11:48:56.221Z,100972.84
2023-04-26T11:54:01.870Z,100971.47
2023-04-26T11:59:05.411Z,100975.75
2023-04-26T12:04:11.054Z,100977.13
2023-04-26T12:09:14.995Z,100977.91
2023-04-26T12:14:18.608Z,100977.41
2023-04-26T12:19:26.616Z,100982.63
2023-04-26T12:24:33.537Z,100984.75
2023-04-26T12:29:36.971Z,100986.31
2023-04-26T12:34:41.773Z,100974.00
2023-04-26T12:39:47.167Z,100968.22
2023-04-26T12:44:50.558Z,100969.53
2023-04-26T12:49:55.535Z,100971.19
2023-04-26T12:54:59.022Z,100982.84
2023-04-26T13:00:02.312Z,100990.66
2023-04-26T13:05:08.649Z,100995.59
2023-04-26T13:10:13.297Z,100992.72
2023-04-26T13:15:17.870Z,100996.38
2023-04-26T13:20:25.457Z,101002.66
2023-04-26T13:25:29.865Z,100997.63
2023-04-26T13:30:33.227Z,100997.34
2023-04-26T13:35:38.193Z,100996.13
2023-04-26T13:40:41.811Z,100994.47
2023-04-26T13:45:45.585Z,101001.25
2023-04-26T13:50:50.479Z,101002.53
2023-04-26T13:55:54.135Z,101010.22
2023-04-26T14:00:57.823Z,101017.16
2023-04-26T14:06:02.814Z,101007.78
2023-04-26T14:11:06.856Z,101003.13
2023-04-26T14:16:10.974Z,101018.09
2023-04-26T14:21:16.569Z,101015.16
2023-04-26T14:26:20.383Z,101015.78
2023-04-26T14:31:26.279Z,101019.06
2023-04-26T14:36:32.234Z,101017.41
2023-04-26T14:41:36.339Z,101019.31
2023-04-26T14:46:40.114Z,101004.25
2023-04-26T14:51:45.292Z,101014.69
2023-04-26T14:56:48.952Z,101011.53
2023-04-26T15:01:53.301Z,101016.91
2023-04-26T15:06:58.155Z,101014.31
2023-04-26T15:12:02.662Z,101025.41
2023-04-26T15:17:06.122Z,101022.78
2023-04-26T15:22:12.069Z,101018.44
2023-04-26T15:27:15.462Z,101025.72
2023-04-26T15:32:18.842Z,101014.88
2023-04-26T15:37:23.665Z,101023.22
2023-04-26T15:42:27.503Z,101014.66
2023-04-26T15:47:31.427Z,101030.44
2023-04-26T15:52:39.195Z,101023.25
2023-04-26T15:57:43.298Z,101031.47
2023-04-26T16:02:47.045Z,101031.34
2023-04-26T16:07:51.935Z,101031.22
2023-04-26T16:12:55.430Z,101033.25
2023-04-26T16:17:59.336Z,101036.31
2023-04-26T16:23:04.397Z,101024.44
2023-04-26T16:28:10.026Z,101021.06
2023-04-26T16:33:14.084Z,101017.91
2023-04-26T16:38:19.311Z,101023.00
2023-04-26T16:43:23.116Z,101020.13
2023-04-26T16:48:27.214Z,101028.34
2023-04-26T16:53:32.520Z,101036.53
2023-04-26T16:58:35.957Z,101038.50
2023-04-26T17:03:39.582Z,101045.66
2023-04-26T17:08:44.415Z,101049.72
2023-04-26T17:13:48.008Z,101049.53
2023-04-26T17:18:52.064Z,101053.72
2023-04-26T17:23:56.932Z,101051.44
2023-04-26T17:29:00.434Z,101052.09
2023-04-26T17:34:04.976Z,101054.25
2023-04-26T17:39:10.286Z,101054.72
2023-04-26T17:44:13.662Z,101058.47
2023-04-26T17:49:17.132Z,101056.41
2023-04-26T17:54:22.159Z,101055.56
2023-04-26T17:59:25.607Z,101057.72
2023-04-26T18:04:29.176Z,101066.19
2023-04-26T18:09:34.556Z,101065.03
2023-04-26T18:14:44.683Z,101074.38
2023-04-26T18:19:48.368Z,101067.50
2023-04-26T18:24:53.190Z,101068.34
2023-04-26T18:29:56.604Z,101076.81
2023-04-26T18:34:59.949Z,101073.63
2023-04-26T18:40:06.126Z,101075.31
2023-04-26T18:45:10.166Z,101083.81
2023-04-26T18:50:13.745Z,101085.31
2023-04-26T18:55:18.780Z,101090.75
2023-04-26T19:00:22.407Z,101094.75
2023-04-26T19:05:27.088Z,101100.28
2023-04-26T19:10:32.363Z,101103.50
2023-04-26T19:15:36.440Z,101107.75
2023-04-26T19:20:40.209Z,101116.13
2023-04-26T19:25:45.179Z,101124.16
2023-04-26T19:30:48.730Z,101123.56
2023-04-26T19:35:52.242Z,101139.47
2023-04-26T19:40:56.955Z,101127.47
2023-04-26T19:46:00.398Z,101130.75
2023-04-26T19:51:04.159Z,101132.97
2023-04-26T19:56:11.014Z,101132.81
2023-04-26T20:01:14.496Z,101141.34
2023-04-26T20:06:18.103Z,101136.72
2023-04-26T20:11:24.028Z,101135.06
2023-04-26T20:16:27.585Z,101136.25
2023-04-26T20:21:31.252Z,101131.69
2023-04-26T20:26:36.203Z,101145.69
2023-04-26T20:31:40.277Z,101139.56
2023-04-26T20:36:44.143Z,101128.72
2023-04-26T20:41:49.067Z,101138.03
2023-04-26T20:46:52.863Z,101133.66
2023-04-26T20:51:57.966Z,101141.69
2023-04-26T20:57:03.888Z,101139.47
2023-04-26T21:02:08.750Z,101131.16
2023-04-26T21:07:12.476Z,101136.75
2023-04-26T21:12:17.446Z,101141.34
2023-04-26T21:17:20.961Z,101140.25
2023-04-26T21:22:24.480Z,101146.13
2023-04-26T21:27:29.328Z,101146.84
2023-04-26T21:32:32.720Z,101146.16
2023-04-26T21:37:36.230Z,101142.84
2023-04-26T21:42:46.560Z,101162.19
2023-04-26T21:47:55.191Z,101165.78
2023-04-26T21:52:58.657Z,101165.56
2023-04-26T21:58:03.640Z,101165.88
2023-04-26T22:03:07.282Z,101163.03
2023-04-26T22:08:10.786Z,101158.69
2023-04-26T22:13:15.613Z,101160.28
2023-04-26T22:18:18.919Z,101153.28
2023-04-26T22:23:22.341Z,101168.56
2023-04-26T22:28:27.480Z,101169.19
2023-04-26T22:33:30.931Z,101176.09
2023-04-26T22:38:34.521Z,101175.13
2023-04-26T22:43:41.478Z,101173.13
2023-04-26T22:48:45.384Z,101173.53
2023-04-26T22:53:49.057Z,101176.50
2023-04-26T22:58:54.348Z,101169.59
2023-04-26T23:03:57.759Z,101179.97
2023-04-26T23:09:01.196Z,101184.44
2023-04-26T23:14:07.285Z,101186.69
2023-04-26T23:19:11.464Z,101198.38
2023-04-26T23:24:15.586Z,101193.63
2023-04-26T23:29:20.516Z,101202.75
2023-04-26T23:34:23.970Z,101200.16
2023-04-26T23:39:27.340Z,101200.22
2023-04-26T23:44:32.139Z,101199.75
2023-04-26T23:49:35.652Z,101203.38
2023-04-26T23:54:39.079Z,101206.59
2023-04-26T23:59:43.967Z,101201.69
